sensor_id;sensor_type;location;lat;lon;timestamp;pressure;altitude;pressure_sealevel;temperature;humidity
68230;BME280;55048;52.220;5.160;2023-07-09T00:00:04;101586.50;;;26.20;59.22
68230;BME280;55048;52.220;5.160;2023-07-09T00:02:35;101603.50;;;26.35;59.01
68230;BME280;55048;52.220;5.160;2023-07-09T00:05:00;101588.59;;;26.24;59.07
68230;BME280;55048;52.220;5.160;2023-07-09T00:07:30;101597.91;;;26.23;59.17
68230;BME280;55048;52.220;5.160;2023-07-09T00:09:58;101602.06;;;26.20;59.18
68230;BME280;55048;52.220;5.160;2023-07-09T00:12:24;101579.97;;;26.04;59.36
68230;BME280;55048;52.220;5.160;2023-07-09T00:14:49;101578.38;;;26.03;59.49
68230;BME280;55048;52.220;5.160;2023-07-09T00:17:21;101598.25;;;26.12;59.85
68230;BME280;55048;52.220;5.160;2023-07-09T00:19:49;101606.28;;;26.09;59.93
68230;BME280;55048;52.220;5.160;2023-07-09T00:22:16;101603.53;;;26.09;59.52
68230;BME280;55048;52.220;5.160;2023-07-09T00:24:47;101587.88;;;25.88;59.62
68230;BME280;55048;52.220;5.160;2023-07-09T00:27:14;101582.25;;;25.85;59.60
68230;BME280;55048;52.220;5.160;2023-07-09T00:29:41;101607.88;;;26.01;59.45
68230;BME280;55048;52.220;5.160;2023-07-09T00:32:12;101610.47;;;25.98;59.92
68230;BME280;55048;52.220;5.160;2023-07-09T00:34:40;101607.75;;;25.89;59.93
68230;BME280;55048;52.220;5.160;2023-07-09T00:37:16;101623.94;;;25.94;61.19
68230;BME280;55048;52.220;5.160;2023-07-09T00:39:43;101626.94;;;25.92;60.90
68230;BME280;55048;52.220;5.160;2023-07-09T00:42:18;101609.34;;;25.81;62.19
68230;BME280;55048;52.220;5.160;2023-07-09T00:44:45;101596.34;;;25.69;62.13
68230;BME280;55048;52.220;5.160;2023-07-09T00:50:32;101630.50;;;25.76;61.40
68230;BME280;55048;52.220;5.160;2023-07-09T00:53:02;101602.72;;;25.56;61.65
68230;BME280;55048;52.220;5.160;2023-07-09T00:55:34;101627.25;;;25.65;61.55
68230;BME280;55048;52.220;5.160;2023-07-09T00:58:05;101629.31;;;25.68;61.59
68230;BME280;55048;52.220;5.160;2023-07-09T01:00:35;101633.66;;;25.69;61.28
68230;BME280;55048;52.220;5.160;2023-07-09T01:03:10;101621.31;;;25.63;61.23
68230;BME280;55048;52.220;5.160;2023-07-09T01:05:38;101629.66;;;25.66;61.20
68230;BME280;55048;52.220;5.160;2023-07-09T01:08:05;101616.03;;;25.58;61.05
68230;BME280;55048;52.220;5.160;2023-07-09T01:10:35;101621.81;;;25.65;61.71
68230;BME280;55048;52.220;5.160;2023-07-09T01:13:01;101617.16;;;25.57;61.52
68230;BME280;55048;52.220;5.160;2023-07-09T01:15:27;101621.47;;;25.58;61.58
68230;BME280;55048;52.220;5.160;2023-07-09T01:17:52;101589.25;;;25.42;61.24
68230;BME280;55048;52.220;5.160;2023-07-09T01:20:19;101587.00;;;25.36;61.12
68230;BME280;55048;52.220;5.160;2023-07-09T01:22:50;101636.03;;;25.53;61.36
68230;BME280;55048;52.220;5.160;2023-07-09T01:25:21;101611.84;;;25.43;61.73
68230;BME280;55048;52.220;5.160;2023-07-09T01:27:47;101630.44;;;25.50;61.66
68230;BME280;55048;52.220;5.160;2023-07-09T01:30:29;101633.00;;;25.46;61.21
68230;BME280;55048;52.220;5.160;2023-07-09T01:32:58;101635.56;;;25.42;60.95
68230;BME280;55048;52.220;5.160;2023-07-09T01:35:24;101622.72;;;25.34;60.99
68230;BME280;55048;52.220;5.160;2023-07-09T01:37:52;101624.94;;;25.24;61.27
68230;BME280;55048;52.220;5.160;2023-07-09T01:40:20;101643.84;;;25.29;61.66
68230;BME280;55048;52.220;5.160;2023-07-09T01:42:46;101631.63;;;25.17;61.76
68230;BME280;55048;52.220;5.160;2023-07-09T01:45:12;101636.13;;;25.13;62.49
68230;BME280;55048;52.220;5.160;2023-07-09T01:47:38;101592.44;;;24.87;62.90
68230;BME280;55048;52.220;5.160;2023-07-09T01:50:05;101644.13;;;25.10;63.08
68230;BME280;55048;52.220;5.160;2023-07-09T01:52:33;101638.16;;;25.08;63.00
68230;BME280;55048;52.220;5.160;2023-07-09T01:55:00;101636.34;;;25.03;63.24
68230;BME280;55048;52.220;5.160;2023-07-09T01:57:27;101648.03;;;25.04;63.14
68230;BME280;55048;52.220;5.160;2023-07-09T02:00:11;101652.81;;;24.98;63.49
68230;BME280;55048;52.220;5.160;2023-07-09T02:02:43;101631.16;;;24.84;62.75
68230;BME280;55048;52.220;5.160;2023-07-09T02:05:20;101638.84;;;24.82;63.03
68230;BME280;55048;52.220;5.160;2023-07-09T02:07:46;101641.44;;;24.87;63.03
68230;BME280;55048;52.220;5.160;2023-07-09T02:10:12;101643.63;;;24.85;63.11
68230;BME280;55048;52.220;5.160;2023-07-09T02:12:38;101646.69;;;24.84;63.30
68230;BME280;55048;52.220;5.160;2023-07-09T02:15:04;101641.88;;;24.81;63.52
68230;BME280;55048;52.220;5.160;2023-07-09T02:17:29;101641.19;;;24.75;63.73
68230;BME280;55048;52.220;5.160;2023-07-09T02:19:55;101641.72;;;24.77;64.27
68230;BME280;55048;52.220;5.160;2023-07-09T02:22:20;101644.72;;;24.76;64.22
68230;BME280;55048;52.220;5.160;2023-07-09T02:24:45;101635.09;;;24.69;64.03
68230;BME280;55048;52.220;5.160;2023-07-09T02:27:16;101648.09;;;24.73;64.54
68230;BME280;55048;52.220;5.160;2023-07-09T02:29:41;101644.25;;;24.74;64.03
68230;BME280;55048;52.220;5.160;2023-07-09T02:32:07;101637.94;;;24.64;64.22
68230;BME280;55048;52.220;5.160;2023-07-09T02:34:32;101616.41;;;24.46;64.11
68230;BME280;55048;52.220;5.160;2023-07-09T02:36:59;101649.63;;;24.65;64.10
68230;BME280;55048;52.220;5.160;2023-07-09T02:39:25;101647.53;;;24.62;64.53
68230;BME280;55048;52.220;5.160;2023-07-09T02:41:51;101629.41;;;24.49;64.99
68230;BME280;55048;52.220;5.160;2023-07-09T02:44:17;101647.38;;;24.58;65.34
68230;BME280;55048;52.220;5.160;2023-07-09T02:46:43;101616.53;;;24.40;65.08
68230;BME280;55048;52.220;5.160;2023-07-09T02:49:10;101639.34;;;24.53;65.15
68230;BME280;55048;52.220;5.160;2023-07-09T02:51:36;101625.19;;;24.42;65.10
68230;BME280;55048;52.220;5.160;2023-07-09T02:54:02;101636.44;;;24.50;65.39
68230;BME280;55048;52.220;5.160;2023-07-09T02:56:29;101641.38;;;24.48;65.40
68230;BME280;55048;52.220;5.160;2023-07-09T02:58:54;101636.97;;;24.38;66.07
68230;BME280;55048;52.220;5.160;2023-07-09T03:01:20;101648.56;;;24.43;66.28
68230;BME280;55048;52.220;5.160;2023-07-09T03:03:56;101640.81;;;24.37;66.52
68230;BME280;55048;52.220;5.160;2023-07-09T03:06:23;101651.38;;;24.38;67.16
68230;BME280;55048;52.220;5.160;2023-07-09T03:08:49;101640.25;;;24.26;67.61
68230;BME280;55048;52.220;5.160;2023-07-09T03:11:15;101649.06;;;24.32;67.34
68230;BME280;55048;52.220;5.160;2023-07-09T03:13:41;101651.00;;;24.31;67.19
68230;BME280;55048;52.220;5.160;2023-07-09T03:16:06;101656.75;;;24.30;67.30
68230;BME280;55048;52.220;5.160;2023-07-09T03:18:32;101606.31;;;24.01;67.31
68230;BME280;55048;52.220;5.160;2023-07-09T03:20:58;101651.25;;;24.21;67.63
68230;BME280;55048;52.220;5.160;2023-07-09T03:23:24;101643.81;;;24.13;68.18
68230;BME280;55048;52.220;5.160;2023-07-09T03:25:49;101638.00;;;24.06;68.28
68230;BME280;55048;52.220;5.160;2023-07-09T03:28:15;101645.56;;;24.09;68.51
68230;BME280;55048;52.220;5.160;2023-07-09T03:30:45;101618.34;;;23.86;68.95
68230;BME280;55048;52.220;5.160;2023-07-09T03:33:13;101646.16;;;24.06;68.81
68230;BME280;55048;52.220;5.160;2023-07-09T03:35:39;101648.06;;;24.05;68.83
68230;BME280;55048;52.220;5.160;2023-07-09T03:38:05;101638.25;;;23.96;68.89
68230;BME280;55048;52.220;5.160;2023-07-09T03:40:31;101605.53;;;23.78;69.08
68230;BME280;55048;52.220;5.160;2023-07-09T03:42:57;101641.09;;;23.90;69.17
68230;BME280;55048;52.220;5.160;2023-07-09T03:45:23;101646.72;;;23.94;69.27
68230;BME280;55048;52.220;5.160;2023-07-09T03:47:48;101644.59;;;23.91;69.38
68230;BME280;55048;52.220;5.160;2023-07-09T03:50:14;101658.38;;;23.95;69.36
68230;BME280;55048;52.220;5.160;2023-07-09T03:52:40;101663.50;;;23.96;69.73
68230;BME280;55048;52.220;5.160;2023-07-09T03:55:05;101655.78;;;23.89;70.07
68230;BME280;55048;52.220;5.160;2023-07-09T03:57:32;101649.34;;;23.85;69.19
68230;BME280;55048;52.220;5.160;2023-07-09T03:59:58;101664.63;;;23.95;69.71
68230;BME280;55048;52.220;5.160;2023-07-09T04:02:24;101640.84;;;23.78;70.00
68230;BME280;55048;52.220;5.160;2023-07-09T04:04:49;101671.97;;;23.95;70.52
68230;BME280;55048;52.220;5.160;2023-07-09T04:07:15;101662.69;;;23.96;70.18
68230;BME280;55048;52.220;5.160;2023-07-09T04:09:41;101648.25;;;23.86;69.95
68230;BME280;55048;52.220;5.160;2023-07-09T04:12:08;101640.41;;;23.85;70.08
68230;BME280;55048;52.220;5.160;2023-07-09T04:14:34;101664.63;;;23.95;70.32
68230;BME280;55048;52.220;5.160;2023-07-09T04:17:00;101647.94;;;23.88;70.67
68230;BME280;55048;52.220;5.160;2023-07-09T04:19:25;101658.38;;;23.95;70.45
68230;BME280;55048;52.220;5.160;2023-07-09T04:21:51;101658.69;;;23.93;70.41
68230;BME280;55048;52.220;5.160;2023-07-09T04:24:17;101675.25;;;24.05;70.31
68230;BME280;55048;52.220;5.160;2023-07-09T04:26:43;101670.00;;;24.09;70.08
68230;BME280;55048;52.220;5.160;2023-07-09T04:29:09;101675.97;;;24.11;70.27
68230;BME280;55048;52.220;5.160;2023-07-09T04:31:35;101646.19;;;23.92;70.48
68230;BME280;55048;52.220;5.160;2023-07-09T04:34:00;101663.56;;;24.05;70.38
68230;BME280;55048;52.220;5.160;2023-07-09T04:36:26;101680.63;;;24.19;70.18
68230;BME280;55048;52.220;5.160;2023-07-09T04:38:51;101674.59;;;24.22;70.55
68230;BME280;55048;52.220;5.160;2023-07-09T04:41:17;101678.31;;;24.26;70.74
68230;BME280;55048;52.220;5.160;2023-07-09T04:43:43;101672.88;;;24.26;70.89
68230;BME280;55048;52.220;5.160;2023-07-09T04:46:09;101678.97;;;24.32;70.73
68230;BME280;55048;52.220;5.160;2023-07-09T04:48:34;101681.88;;;24.35;70.51
68230;BME280;55048;52.220;5.160;2023-07-09T04:51:00;101641.19;;;24.22;70.10
68230;BME280;55048;52.220;5.160;2023-07-09T04:53:26;101664.88;;;24.43;69.39
68230;BME280;55048;52.220;5.160;2023-07-09T04:55:51;101659.13;;;24.45;69.33
68230;BME280;55048;52.220;5.160;2023-07-09T04:58:17;101651.28;;;24.43;69.55
68230;BME280;55048;52.220;5.160;2023-07-09T05:00:44;101653.16;;;24.43;69.85
68230;BME280;55048;52.220;5.160;2023-07-09T05:03:09;101649.16;;;24.40;69.69
68230;BME280;55048;52.220;5.160;2023-07-09T05:05:35;101664.63;;;24.54;69.99
68230;BME280;55048;52.220;5.160;2023-07-09T05:08:00;101670.41;;;24.61;69.89
68230;BME280;55048;52.220;5.160;2023-07-09T05:10:26;101653.91;;;24.57;69.50
68230;BME280;55048;52.220;5.160;2023-07-09T05:12:53;101651.06;;;24.62;69.35
68230;BME280;55048;52.220;5.160;2023-07-09T05:15:21;101664.09;;;24.74;69.54
68230;BME280;55048;52.220;5.160;2023-07-09T05:17:47;101664.59;;;24.76;69.17
68230;BME280;55048;52.220;5.160;2023-07-09T05:20:15;101653.72;;;24.76;69.00
68230;BME280;55048;52.220;5.160;2023-07-09T05:22:41;101654.84;;;24.84;68.91
68230;BME280;55048;52.220;5.160;2023-07-09T05:25:07;101667.06;;;24.95;68.50
68230;BME280;55048;52.220;5.160;2023-07-09T05:27:32;101657.59;;;24.92;69.06
68230;BME280;55048;52.220;5.160;2023-07-09T05:29:58;101641.44;;;24.87;69.30
68230;BME280;55048;52.220;5.160;2023-07-09T05:32:23;101651.28;;;25.06;69.25
68230;BME280;55048;52.220;5.160;2023-07-09T05:34:49;101643.78;;;25.11;69.01
68230;BME280;55048;52.220;5.160;2023-07-09T05:37:14;101646.03;;;25.18;69.20
68230;BME280;55048;52.220;5.160;2023-07-09T05:39:40;101639.97;;;25.21;69.15
68230;BME280;55048;52.220;5.160;2023-07-09T05:42:06;101663.91;;;25.41;68.92
68230;BME280;55048;52.220;5.160;2023-07-09T05:44:32;101648.84;;;25.44;68.63
68230;BME280;55048;52.220;5.160;2023-07-09T05:46:57;101652.72;;;25.52;68.59
68230;BME280;55048;52.220;5.160;2023-07-09T05:49:23;101657.84;;;25.62;68.35
68230;BME280;55048;52.220;5.160;2023-07-09T05:51:48;101668.75;;;25.70;67.59
68230;BME280;55048;52.220;5.160;2023-07-09T05:54:14;101661.38;;;25.71;67.01
68230;BME280;55048;52.220;5.160;2023-07-09T05:56:39;101654.38;;;25.79;66.57
68230;BME280;55048;52.220;5.160;2023-07-09T05:59:04;101656.78;;;25.89;66.38
68230;BME280;55048;52.220;5.160;2023-07-09T06:01:30;101642.66;;;25.87;66.34
68230;BME280;55048;52.220;5.160;2023-07-09T06:03:55;101672.00;;;26.16;66.20
68230;BME280;55048;52.220;5.160;2023-07-09T06:06:22;101656.13;;;26.27;66.12
68230;BME280;55048;52.220;5.160;2023-07-09T06:08:47;101664.00;;;26.45;65.97
68230;BME280;55048;52.220;5.160;2023-07-09T06:11:13;101679.81;;;26.78;65.41
68230;BME280;55048;52.220;5.160;2023-07-09T06:13:38;101670.69;;;27.04;64.18
68230;BME280;55048;52.220;5.160;2023-07-09T06:16:04;101660.69;;;27.25;63.32
68230;BME280;55048;52.220;5.160;2023-07-09T06:18:30;101661.06;;;27.44;62.78
68230;BME280;55048;52.220;5.160;2023-07-09T06:21:00;101676.00;;;27.68;62.11
68230;BME280;55048;52.220;5.160;2023-07-09T06:23:26;101673.69;;;27.79;61.43
68230;BME280;55048;52.220;5.160;2023-07-09T06:25:51;101673.44;;;27.92;60.73
68230;BME280;55048;52.220;5.160;2023-07-09T06:28:20;101688.25;;;28.12;60.45
68230;BME280;55048;52.220;5.160;2023-07-09T06:30:46;101668.28;;;28.12;59.54
68230;BME280;55048;52.220;5.160;2023-07-09T06:33:14;101688.56;;;28.32;58.73
68230;BME280;55048;52.220;5.160;2023-07-09T06:35:46;101694.44;;;28.42;57.66
68230;BME280;55048;52.220;5.160;2023-07-09T06:38:12;101695.13;;;28.52;57.60
68230;BME280;55048;52.220;5.160;2023-07-09T06:40:38;101690.81;;;28.51;57.11
68230;BME280;55048;52.220;5.160;2023-07-09T06:43:03;101692.75;;;28.62;56.63
68230;BME280;55048;52.220;5.160;2023-07-09T06:45:33;101686.84;;;28.60;56.15
68230;BME280;55048;52.220;5.160;2023-07-09T06:48:00;101691.88;;;28.70;56.61
68230;BME280;55048;52.220;5.160;2023-07-09T06:50:25;101697.97;;;28.88;56.12
68230;BME280;55048;52.220;5.160;2023-07-09T06:52:51;101695.28;;;29.01;55.98
68230;BME280;55048;52.220;5.160;2023-07-09T06:55:17;101692.88;;;29.11;55.12
68230;BME280;55048;52.220;5.160;2023-07-09T06:57:42;101694.38;;;29.21;54.81
68230;BME280;55048;52.220;5.160;2023-07-09T07:00:08;101697.78;;;29.30;54.71
68230;BME280;55048;52.220;5.160;2023-07-09T07:02:34;101700.50;;;29.42;54.80
68230;BME280;55048;52.220;5.160;2023-07-09T07:04:59;101718.56;;;29.56;54.16
68230;BME280;55048;52.220;5.160;2023-07-09T07:07:24;101711.69;;;29.49;53.89
68230;BME280;55048;52.220;5.160;2023-07-09T07:09:50;101717.78;;;29.43;54.66
68230;BME280;55048;52.220;5.160;2023-07-09T07:12:29;101706.38;;;29.29;55.56
68230;BME280;55048;52.220;5.160;2023-07-09T07:14:55;101722.69;;;29.25;56.56
68230;BME280;55048;52.220;5.160;2023-07-09T07:17:21;101718.78;;;29.14;56.90
68230;BME280;55048;52.220;5.160;2023-07-09T07:19:47;101715.59;;;29.12;57.30
68230;BME280;55048;52.220;5.160;2023-07-09T07:22:13;101717.41;;;29.08;58.05
68230;BME280;55048;52.220;5.160;2023-07-09T07:24:39;101713.53;;;28.96;57.45
68230;BME280;55048;52.220;5.160;2023-07-09T07:27:08;101731.91;;;29.20;56.81
68230;BME280;55048;52.220;5.160;2023-07-09T07:29:33;101715.94;;;29.10;57.09
68230;BME280;55048;52.220;5.160;2023-07-09T07:31:59;101718.09;;;29.17;57.10
68230;BME280;55048;52.220;5.160;2023-07-09T07:34:26;101721.19;;;29.28;57.81
68230;BME280;55048;52.220;5.160;2023-07-09T07:36:51;101729.53;;;29.31;57.53
68230;BME280;55048;52.220;5.160;2023-07-09T07:39:17;101717.41;;;29.32;57.59
68230;BME280;55048;52.220;5.160;2023-07-09T07:41:42;101717.31;;;29.41;57.35
68230;BME280;55048;52.220;5.160;2023-07-09T07:44:07;101719.25;;;29.53;57.43
68230;BME280;55048;52.220;5.160;2023-07-09T07:46:34;101713.66;;;29.49;56.78
68230;BME280;55048;52.220;5.160;2023-07-09T07:49:00;101726.88;;;29.47;55.70
68230;BME280;55048;52.220;5.160;2023-07-09T07:51:25;101737.97;;;29.51;54.65
68230;BME280;55048;52.220;5.160;2023-07-09T07:53:52;101739.47;;;29.60;54.33
68230;BME280;55048;52.220;5.160;2023-07-09T07:56:17;101718.25;;;29.57;54.71
68230;BME280;55048;52.220;5.160;2023-07-09T07:58:43;101731.13;;;29.69;54.60
68230;BME280;55048;52.220;5.160;2023-07-09T08:01:08;101714.19;;;29.79;54.63
68230;BME280;55048;52.220;5.160;2023-07-09T08:03:34;101720.03;;;29.90;54.62
68230;BME280;55048;52.220;5.160;2023-07-09T08:05:59;101714.78;;;29.85;54.30
68230;BME280;55048;52.220;5.160;2023-07-09T08:08:25;101709.25;;;29.97;54.27
68230;BME280;55048;52.220;5.160;2023-07-09T08:10:50;101720.16;;;30.21;54.15
68230;BME280;55048;52.220;5.160;2023-07-09T08:13:16;101727.25;;;30.22;54.56
68230;BME280;55048;52.220;5.160;2023-07-09T08:15:42;101736.47;;;30.30;53.98
68230;BME280;55048;52.220;5.160;2023-07-09T08:18:07;101736.41;;;30.27;53.70
68230;BME280;55048;52.220;5.160;2023-07-09T08:20:33;101729.69;;;30.40;53.54
68230;BME280;55048;52.220;5.160;2023-07-09T08:22:58;101700.16;;;30.21;53.53
68230;BME280;55048;52.220;5.160;2023-07-09T08:25:24;101711.19;;;30.37;53.68
68230;BME280;55048;52.220;5.160;2023-07-09T08:27:50;101728.63;;;30.44;53.14
68230;BME280;55048;52.220;5.160;2023-07-09T08:30:15;101714.75;;;30.53;52.42
68230;BME280;55048;52.220;5.160;2023-07-09T08:32:40;101717.97;;;30.55;52.65
68230;BME280;55048;52.220;5.160;2023-07-09T08:35:06;101701.13;;;30.41;52.63
68230;BME280;55048;52.220;5.160;2023-07-09T08:37:32;101705.69;;;30.37;53.26
68230;BME280;55048;52.220;5.160;2023-07-09T08:39:57;101700.38;;;30.28;52.42
68230;BME280;55048;52.220;5.160;2023-07-09T08:42:36;101719.09;;;30.26;51.82
68230;BME280;55048;52.220;5.160;2023-07-09T08:48:13;101722.06;;;30.33;49.87
68230;BME280;55048;52.220;5.160;2023-07-09T08:50:47;101719.94;;;30.27;48.66
68230;BME280;55048;52.220;5.160;2023-07-09T08:53:28;101715.16;;;30.39;47.89
68230;BME280;55048;52.220;5.160;2023-07-09T08:55:56;101702.44;;;30.47;47.71
68230;BME280;55048;52.220;5.160;2023-07-09T08:58:27;101698.66;;;30.52;47.64
68230;BME280;55048;52.220;5.160;2023-07-09T09:00:59;101691.22;;;30.52;47.60
68230;BME280;55048;52.220;5.160;2023-07-09T09:03:37;101706.00;;;30.63;46.95
68230;BME280;55048;52.220;5.160;2023-07-09T09:06:17;101704.78;;;30.61;47.90
68230;BME280;55048;52.220;5.160;2023-07-09T09:11:41;101688.63;;;30.43;48.05
68230;BME280;55048;52.220;5.160;2023-07-09T09:16:53;101701.81;;;30.82;48.41
68230;BME280;55048;52.220;5.160;2023-07-09T09:19:29;101701.66;;;31.06;48.29
68230;BME280;55048;52.220;5.160;2023-07-09T09:22:01;101697.84;;;31.11;47.83
68230;BME280;55048;52.220;5.160;2023-07-09T09:24:38;101703.50;;;31.34;47.01
68230;BME280;55048;52.220;5.160;2023-07-09T09:27:08;101691.22;;;31.47;47.51
68230;BME280;55048;52.220;5.160;2023-07-09T09:29:33;101684.50;;;31.44;46.84
68230;BME280;55048;52.220;5.160;2023-07-09T09:32:20;101690.16;;;31.52;46.51
68230;BME280;55048;52.220;5.160;2023-07-09T09:34:47;101688.53;;;31.66;46.80
68230;BME280;55048;52.220;5.160;2023-07-09T09:39:53;101670.50;;;31.69;46.48
68230;BME280;55048;52.220;5.160;2023-07-09T09:42:19;101683.41;;;31.84;46.55
68230;BME280;55048;52.220;5.160;2023-07-09T09:44:45;101684.38;;;31.92;46.65
68230;BME280;55048;52.220;5.160;2023-07-09T09:47:11;101676.63;;;31.97;46.63
68230;BME280;55048;52.220;5.160;2023-07-09T09:49:43;101681.25;;;31.93;46.60
68230;BME280;55048;52.220;5.160;2023-07-09T09:52:17;101678.19;;;31.98;47.15
68230;BME280;55048;52.220;5.160;2023-07-09T09:55:01;101683.72;;;32.18;46.90
68230;BME280;55048;52.220;5.160;2023-07-09T09:57:29;101688.94;;;32.42;45.50
68230;BME280;55048;52.220;5.160;2023-07-09T09:59:55;101686.25;;;32.92;44.67
68230;BME280;55048;52.220;5.160;2023-07-09T10:02:23;101694.25;;;33.50;43.46
68230;BME280;55048;52.220;5.160;2023-07-09T10:04:50;101689.69;;;33.91;42.55
68230;BME280;55048;52.220;5.160;2023-07-09T10:07:33;101688.91;;;34.24;41.65
68230;BME280;55048;52.220;5.160;2023-07-09T10:10:00;101684.84;;;34.48;40.48
68230;BME280;55048;52.220;5.160;2023-07-09T10:12:41;101692.91;;;34.68;40.17
68230;BME280;55048;52.220;5.160;2023-07-09T10:15:40;101677.69;;;34.88;39.94
68230;BME280;55048;52.220;5.160;2023-07-09T10:20:51;101680.38;;;34.81;39.82
68230;BME280;55048;52.220;5.160;2023-07-09T10:26:15;101698.66;;;34.48;40.51
68230;BME280;55048;52.220;5.160;2023-07-09T10:32:23;101695.13;;;34.51;40.78
68230;BME280;55048;52.220;5.160;2023-07-09T10:37:34;101698.91;;;33.72;41.88
68230;BME280;55048;52.220;5.160;2023-07-09T10:40:07;101696.91;;;33.43;42.19
68230;BME280;55048;52.220;5.160;2023-07-09T10:42:44;101690.16;;;33.97;41.91
68230;BME280;55048;52.220;5.160;2023-07-09T10:45:20;101696.69;;;34.15;41.92
68230;BME280;55048;52.220;5.160;2023-07-09T10:47:51;101699.03;;;34.50;42.04
68230;BME280;55048;52.220;5.160;2023-07-09T10:50:41;101705.72;;;34.46;41.19
68230;BME280;55048;52.220;5.160;2023-07-09T10:53:41;101694.69;;;33.82;42.19
68230;BME280;55048;52.220;5.160;2023-07-09T10:56:14;101665.53;;;33.85;42.26
68230;BME280;55048;52.220;5.160;2023-07-09T10:58:49;101676.28;;;33.93;42.18
68230;BME280;55048;52.220;5.160;2023-07-09T11:01:15;101674.25;;;33.87;40.76
68230;BME280;55048;52.220;5.160;2023-07-09T11:03:49;101670.88;;;33.70;40.89
68230;BME280;55048;52.220;5.160;2023-07-09T11:06:40;101689.53;;;33.50;40.83
68230;BME280;55048;52.220;5.160;2023-07-09T11:09:33;101707.50;;;32.91;41.33
68230;BME280;55048;52.220;5.160;2023-07-09T11:12:05;101703.69;;;32.54;41.62
68230;BME280;55048;52.220;5.160;2023-07-09T11:14:39;101714.91;;;31.87;41.51
68230;BME280;55048;52.220;5.160;2023-07-09T11:17:12;101699.00;;;32.15;40.51
68230;BME280;55048;52.220;5.160;2023-07-09T11:19:45;101687.25;;;32.18;40.16
68230;BME280;55048;52.220;5.160;2023-07-09T11:22:38;101699.50;;;32.40;38.96
68230;BME280;55048;52.220;5.160;2023-07-09T11:25:14;101683.53;;;32.30;38.52
68230;BME280;55048;52.220;5.160;2023-07-09T11:27:50;101666.13;;;32.22;38.61
68230;BME280;55048;52.220;5.160;2023-07-09T11:30:23;101667.53;;;32.55;37.97
68230;BME280;55048;52.220;5.160;2023-07-09T11:32:58;101664.34;;;32.76;37.73
68230;BME280;55048;52.220;5.160;2023-07-09T11:35:26;101681.13;;;32.90;38.02
68230;BME280;55048;52.220;5.160;2023-07-09T11:37:53;101667.41;;;32.71;38.76
68230;BME280;55048;52.220;5.160;2023-07-09T11:40:20;101684.94;;;32.86;38.33
68230;BME280;55048;52.220;5.160;2023-07-09T11:42:53;101678.00;;;33.18;38.20
68230;BME280;55048;52.220;5.160;2023-07-09T11:45:31;101664.09;;;33.08;38.43
68230;BME280;55048;52.220;5.160;2023-07-09T11:50:45;101692.91;;;33.40;38.83
68230;BME280;55048;52.220;5.160;2023-07-09T11:53:24;101691.25;;;33.59;38.23
68230;BME280;55048;52.220;5.160;2023-07-09T11:55:50;101697.81;;;33.50;36.86
68230;BME280;55048;52.220;5.160;2023-07-09T11:58:17;101706.09;;;33.50;36.70
68230;BME280;55048;52.220;5.160;2023-07-09T12:00:47;101718.16;;;33.42;36.53
68230;BME280;55048;52.220;5.160;2023-07-09T12:03:34;101707.13;;;33.16;37.14
68230;BME280;55048;52.220;5.160;2023-07-09T12:06:07;101722.06;;;33.15;37.23
68230;BME280;55048;52.220;5.160;2023-07-09T12:08:41;101721.47;;;33.02;37.54
68230;BME280;55048;52.220;5.160;2023-07-09T12:11:19;101724.16;;;32.98;37.85
68230;BME280;55048;52.220;5.160;2023-07-09T12:13:45;101718.75;;;33.06;37.61
68230;BME280;55048;52.220;5.160;2023-07-09T12:16:20;101729.66;;;33.44;37.91
68230;BME280;55048;52.220;5.160;2023-07-09T12:18:46;101726.50;;;33.46;37.35
68230;BME280;55048;52.220;5.160;2023-07-09T12:21:12;101721.34;;;33.71;37.31
68230;BME280;55048;52.220;5.160;2023-07-09T12:23:39;101718.47;;;33.94;37.76
68230;BME280;55048;52.220;5.160;2023-07-09T12:26:06;101731.16;;;33.95;38.03
68230;BME280;55048;52.220;5.160;2023-07-09T12:28:32;101721.94;;;33.57;38.70
68230;BME280;55048;52.220;5.160;2023-07-09T12:30:58;101728.09;;;33.24;39.33
68230;BME280;55048;52.220;5.160;2023-07-09T12:33:25;101722.41;;;32.67;41.67
68230;BME280;55048;52.220;5.160;2023-07-09T12:36:04;101737.22;;;32.82;41.70
68230;BME280;55048;52.220;5.160;2023-07-09T12:38:42;101745.34;;;32.52;42.90
68230;BME280;55048;52.220;5.160;2023-07-09T12:41:19;101770.72;;;32.22;43.55
68230;BME280;55048;52.220;5.160;2023-07-09T12:43:45;101756.78;;;31.80;43.43
68230;BME280;55048;52.220;5.160;2023-07-09T12:46:10;101757.91;;;31.60;42.45
68230;BME280;55048;52.220;5.160;2023-07-09T12:48:36;101728.34;;;31.72;42.58
68230;BME280;55048;52.220;5.160;2023-07-09T12:51:06;101739.66;;;31.36;43.10
68230;BME280;55048;52.220;5.160;2023-07-09T12:53:32;101743.19;;;31.52;42.78
68230;BME280;55048;52.220;5.160;2023-07-09T12:56:00;101742.59;;;31.78;43.37
68230;BME280;55048;52.220;5.160;2023-07-09T12:58:28;101747.22;;;32.09;43.37
68230;BME280;55048;52.220;5.160;2023-07-09T13:00:55;101748.09;;;32.13;43.73
68230;BME280;55048;52.220;5.160;2023-07-09T13:03:28;101743.63;;;32.44;43.27
68230;BME280;55048;52.220;5.160;2023-07-09T13:06:01;101728.19;;;32.20;43.02
68230;BME280;55048;52.220;5.160;2023-07-09T13:08:31;101718.69;;;32.17;41.04
68230;BME280;55048;52.220;5.160;2023-07-09T13:10:57;101709.06;;;32.46;41.01
68230;BME280;55048;52.220;5.160;2023-07-09T13:13:24;101702.19;;;32.37;41.23
68230;BME280;55048;52.220;5.160;2023-07-09T13:15:59;101718.69;;;32.56;41.27
68230;BME280;55048;52.220;5.160;2023-07-09T13:18:27;101715.69;;;32.65;41.39
68230;BME280;55048;52.220;5.160;2023-07-09T13:20:54;101729.06;;;32.43;41.42
68230;BME280;55048;52.220;5.160;2023-07-09T13:23:26;101727.50;;;32.26;42.14
68230;BME280;55048;52.220;5.160;2023-07-09T13:25:52;101739.84;;;32.13;42.39